createdAt,value
2022-12-25T00:03:45.958Z,99103.41
2022-12-25T00:08:49.497Z,99109.56
2022-12-25T00:13:52.814Z,99112.59
2022-12-25T00:18:59.236Z,99125.47
2022-12-25T00:24:03.655Z,99137.34
2022-12-25T00:29:07.034Z,99133.78
2022-12-25T00:34:12.171Z,99139.66
2022-12-25T00:39:15.181Z,99144.34
2022-12-25T00:44:19.038Z,99147.16
2022-12-25T00:49:25.063Z,99159.44
2022-12-25T00:54:28.826Z,99166.97
2022-12-25T00:59:33.907Z,99172.31
2022-12-25T01:04:38.735Z,99183.25
2022-12-25T01:09:59.245Z,99180.19
2022-12-25T01:15:02.677Z,99188.28
2022-12-25T01:20:09.590Z,99196.63
2022-12-25T01:25:14.307Z,99194.53
2022-12-25T01:30:17.734Z,99190.22
2022-12-25T01:35:22.593Z,99204.72
2022-12-25T01:40:26.310Z,99198.28
2022-12-25T01:45:39.463Z,99210.41
2022-12-25T01:50:49.031Z,99218.56
2022-12-25T01:55:58.057Z,99229.69
2022-12-25T02:01:01.590Z,99233.22
2022-12-25T02:06:08.144Z,99231.66
2022-12-25T02:11:32.222Z,99243.31
2022-12-25T02:16:57.442Z,99262.50
2022-12-25T02:22:17.396Z,99240.19
2022-12-25T02:27:33.232Z,99255.16
2022-12-25T02:32:46.331Z,99265.31
2022-12-25T02:37:54.892Z,99260.50
2022-12-25T02:43:19.939Z,99258.19
2022-12-25T02:48:44.900Z,99284.50
2022-12-25T02:54:07.560Z,99291.63
2022-12-25T02:59:29.214Z,99299.19
2022-12-25T03:04:52.425Z,99310.97
2022-12-25T03:10:17.969Z,99303.47
2022-12-25T03:15:39.567Z,99317.38
2022-12-25T03:21:01.953Z,99320.63
2022-12-25T03:26:23.549Z,99324.94
2022-12-25T03:31:36.901Z,99325.91
2022-12-25T03:36:53.138Z,99325.00
2022-12-25T03:42:19.320Z,99322.31
2022-12-25T03:47:45.942Z,99332.59
2022-12-25T03:53:10.231Z,99344.31
2022-12-25T03:58:36.820Z,99343.47
2022-12-25T04:03:57.495Z,99359.91
2022-12-25T04:09:19.815Z,99370.41
2022-12-25T04:14:40.284Z,99380.06
2022-12-25T04:20:00.948Z,99373.91
2022-12-25T04:25:35.029Z,99380.47
2022-12-25T04:30:55.757Z,99399.31
2022-12-25T04:36:11.048Z,99407.56
2022-12-25T04:41:16.145Z,99395.47
2022-12-25T04:46:19.553Z,99402.44
2022-12-25T04:51:24.721Z,99418.88
2022-12-25T04:56:29.487Z,99428.25
2022-12-25T05:01:32.761Z,99439.50
2022-12-25T05:06:36.315Z,99448.84
2022-12-25T05:11:41.245Z,99448.72
2022-12-25T05:16:44.704Z,99455.97
2022-12-25T05:21:48.126Z,99464.22
2022-12-25T05:26:52.882Z,99477.06
2022-12-25T05:31:56.204Z,99479.97
2022-12-25T05:36:59.907Z,99490.13
2022-12-25T05:42:04.808Z,99483.19
2022-12-25T05:47:08.084Z,99484.75
2022-12-25T05:52:11.661Z,99500.22
2022-12-25T05:57:16.591Z,99504.38
2022-12-25T06:02:20.048Z,99508.44
2022-12-25T06:07:23.667Z,99518.81
2022-12-25T06:12:28.491Z,99521.53
2022-12-25T06:17:31.652Z,99528.16
2022-12-25T06:22:35.928Z,99523.47
2022-12-25T06:27:40.925Z,99523.41
2022-12-25T06:32:44.372Z,99550.69
2022-12-25T06:37:47.911Z,99557.28
2022-12-25T06:42:53.375Z,99560.31
2022-12-25T06:47:56.897Z,99565.94
2022-12-25T06:53:00.237Z,99581.06
2022-12-25T06:58:05.369Z,99580.50
2022-12-25T07:03:09.047Z,99585.38
2022-12-25T07:08:12.538Z,99572.22
2022-12-25T07:13:17.308Z,99582.91
2022-12-25T07:18:20.872Z,99587.81
2022-12-25T07:23:24.752Z,99603.69
2022-12-25T07:28:30.244Z,99608.09
2022-12-25T07:33:34.021Z,99616.59
2022-12-25T07:38:37.600Z,99624.41
2022-12-25T07:43:43.239Z,99628.06
2022-12-25T07:48:46.789Z,99623.44
2022-12-25T07:53:50.219Z,99640.00
2022-12-25T07:58:54.992Z,99649.38
2022-12-25T08:03:58.943Z,99662.53
2022-12-25T08:09:06.036Z,99669.66
2022-12-25T08:14:10.853Z,99671.63
2022-12-25T08:19:14.644Z,99669.59
2022-12-25T08:24:18.000Z,99669.88
2022-12-25T08:29:22.947Z,99669.19
2022-12-25T08:34:26.269Z,99656.88
2022-12-25T08:39:29.780Z,99672.56
2022-12-25T08:44:34.637Z,99687.38
2022-12-25T08:49:37.725Z,99696.03
2022-12-25T08:54:41.316Z,99704.50
2022-12-25T08:59:46.118Z,99698.84
2022-12-25T09:04:49.419Z,99713.78
2022-12-25T09:09:52.801Z,99711.22
2022-12-25T09:14:57.741Z,99716.34
2022-12-25T09:20:00.951Z,99726.47
2022-12-25T09:25:04.419Z,99719.97
2022-12-25T09:30:11.172Z,99726.63
2022-12-25T09:35:17.621Z,99730.66
2022-12-25T09:40:23.260Z,99729.00
2022-12-25T09:45:33.017Z,99734.63
2022-12-25T09:50:45.048Z,99731.69
2022-12-25T09:55:54.860Z,99739.34
2022-12-25T10:01:18.356Z,99743.44
2022-12-25T10:06:25.054Z,99746.97
2022-12-25T10:11:42.985Z,99764.47
2022-12-25T10:16:57.564Z,99757.31
2022-12-25T10:22:05.274Z,99755.34
2022-12-25T10:27:17.156Z,99750.19
2022-12-25T10:32:22.051Z,99747.84
2022-12-25T10:37:26.348Z,99756.19
2022-12-25T10:42:38.721Z,99763.31
2022-12-25T10:47:43.563Z,99764.78
2022-12-25T10:52:55.423Z,99766.84
2022-12-25T10:58:00.304Z,99760.47
2022-12-25T11:03:05.343Z,99780.03
2022-12-25T11:08:21.910Z,99787.19
2022-12-25T11:13:27.440Z,99801.84
2022-12-25T11:18:36.130Z,99789.88
2022-12-25T11:23:46.410Z,99802.47
2022-12-25T11:28:52.711Z,99801.63
2022-12-25T11:34:00.751Z,99794.66
2022-12-25T11:39:15.635Z,99820.25
2022-12-25T11:44:29.284Z,99822.63
2022-12-25T11:49:47.116Z,99815.06
2022-12-25T11:54:56.680Z,99826.38
2022-12-25T12:00:06.910Z,99820.19
2022-12-25T12:05:18.188Z,99833.78
2022-12-25T12:10:29.795Z,99812.66
2022-12-25T12:15:42.756Z,99828.47
2022-12-25T12:20:59.374Z,99848.47
2022-12-25T12:26:03.088Z,99853.22
2022-12-25T12:31:09.459Z,99858.34
2022-12-25T12:36:16.238Z,99858.97
2022-12-25T12:41:19.665Z,99861.81
2022-12-25T12:46:30.525Z,99859.53
2022-12-25T12:51:37.616Z,99876.75
2022-12-25T12:56:41.218Z,99878.91
2022-12-25T13:01:53.602Z,99875.97
2022-12-25T13:07:10.402Z,99881.59
2022-12-25T13:12:15.310Z,99875.50
2022-12-25T13:17:19.977Z,99891.50
2022-12-25T13:22:26.483Z,99899.09
2022-12-25T13:27:33.210Z,99907.25
2022-12-25T13:32:36.727Z,99907.84
2022-12-25T13:37:41.502Z,99910.75
2022-12-25T13:42:47.843Z,99913.78
2022-12-25T13:47:55.624Z,99907.41
2022-12-25T13:53:13.492Z,99924.00
2022-12-25T13:58:25.227Z,99923.09
2022-12-25T14:03:33.610Z,99925.38
2022-12-25T14:08:38.644Z,99918.28
2022-12-25T14:13:44.970Z,99915.66
2022-12-25T14:18:53.036Z,99913.25
2022-12-25T14:23:58.177Z,99920.84
2022-12-25T14:29:16.511Z,99928.72
2022-12-25T14:34:24.305Z,99942.47
2022-12-25T14:39:33.676Z,99959.31
2022-12-25T14:44:39.089Z,99963.19
2022-12-25T14:49:42.744Z,99971.28
2022-12-25T14:54:50.022Z,99977.97
2022-12-25T14:59:58.960Z,99969.47
2022-12-25T15:05:02.440Z,99961.44
2022-12-25T15:10:58.886Z,99970.53
2022-12-25T15:15:38.544Z,99971.81
2022-12-25T15:20:42.109Z,99971.59
2022-12-25T15:25:47.651Z,99981.97
2022-12-25T15:30:51.117Z,99987.97
2022-12-25T15:35:54.494Z,99991.84
2022-12-25T15:40:59.414Z,99995.50
2022-12-25T15:46:02.878Z,99999.06
2022-12-25T15:51:06.569Z,99999.84
2022-12-25T15:56:12.846Z,100006.56
2022-12-25T16:01:17.168Z,100016.44
2022-12-25T16:06:20.927Z,100025.13
2022-12-25T16:11:25.650Z,100024.97
2022-12-25T16:16:29.037Z,100021.31
2022-12-25T16:21:39.487Z,100020.09
2022-12-25T16:26:45.074Z,100026.75
2022-12-25T16:31:48.411Z,100030.66
2022-12-25T16:36:51.928Z,100032.41
2022-12-25T16:41:56.877Z,100031.13
2022-12-25T16:47:00.517Z,100041.81
2022-12-25T16:52:04.191Z,100035.69
2022-12-25T16:57:09.009Z,100051.16
2022-12-25T17:02:16.388Z,100050.44
2022-12-25T17:07:19.993Z,100050.69
2022-12-25T17:12:24.903Z,100045.66
2022-12-25T17:17:28.442Z,100045.59
2022-12-25T17:22:32.060Z,100062.19
2022-12-25T17:27:37.363Z,100051.88
2022-12-25T17:32:41.440Z,100063.47
2022-12-25T17:37:44.976Z,100055.03
2022-12-25T17:42:53.053Z,100024.34
2022-12-25T17:47:57.802Z,100063.16
2022-12-25T17:53:02.685Z,100063.53
2022-12-25T17:58:07.609Z,100064.56
2022-12-25T18:03:12.043Z,100060.69
2022-12-25T18:08:16.226Z,100062.09
2022-12-25T18:13:21.054Z,100072.06
2022-12-25T18:18:24.107Z,100070.88
2022-12-25T18:23:27.734Z,100079.66
2022-12-25T18:28:32.885Z,100093.41
2022-12-25T18:33:36.226Z,100101.22
2022-12-25T18:38:39.786Z,100100.94
2022-12-25T18:43:53.051Z,100101.94
2022-12-25T18:48:59.045Z,100106.41
2022-12-25T18:54:02.859Z,100107.53
2022-12-25T18:59:07.643Z,100102.34
2022-12-25T19:04:12.902Z,100108.81
2022-12-25T19:09:16.468Z,100117.00
2022-12-25T19:14:23.112Z,100120.53
2022-12-25T19:19:26.801Z,100127.41
2022-12-25T19:24:30.125Z,100132.34
2022-12-25T19:29:35.230Z,100126.03
2022-12-25T19:34:38.719Z,100143.25
2022-12-25T19:39:47.017Z,100145.91
2022-12-25T19:44:51.874Z,100105.31
2022-12-25T19:49:59.590Z,100149.00
2022-12-25T19:55:08.410Z,100152.00
2022-12-25T20:00:14.000Z,100146.22
2022-12-25T20:05:17.577Z,100155.66
2022-12-25T20:10:21.061Z,100157.81
2022-12-25T20:15:28.736Z,100155.56
2022-12-25T20:20:32.225Z,100151.22
2022-12-25T20:25:35.682Z,100160.09
2022-12-25T20:30:41.751Z,100160.47
2022-12-25T20:35:46.916Z,100156.59
2022-12-25T20:41:25.086Z,100166.31
2022-12-25T20:46:15.501Z,100166.31
2022-12-25T20:51:20.770Z,100173.78
2022-12-25T20:56:25.922Z,100169.63
2022-12-25T21:01:32.521Z,100175.81
2022-12-25T21:06:36.252Z,100186.91
2022-12-25T21:11:39.793Z,100195.00
2022-12-25T21:16:45.040Z,100201.69
2022-12-25T21:21:51.263Z,100198.25
2022-12-25T21:26:54.697Z,100202.91
2022-12-25T21:32:16.660Z,100205.47
2022-12-25T21:37:20.175Z,100208.03
2022-12-25T21:42:24.814Z,100207.25
2022-12-25T21:48:02.466Z,100203.72
2022-12-25T21:52:52.932Z,100203.53
2022-12-25T21:57:56.580Z,100210.91
2022-12-25T22:03:01.572Z,100172.84
2022-12-25T22:08:05.039Z,100205.47
2022-12-25T22:13:26.000Z,100210.03
2022-12-25T22:18:48.344Z,100205.38
2022-12-25T22:23:51.820Z,100208.94
2022-12-25T22:28:55.177Z,100198.25
2022-12-25T22:33:59.916Z,100210.75
2022-12-25T22:39:03.912Z,100217.63
2022-12-25T22:44:17.648Z,100212.69
2022-12-25T22:49:23.408Z,100214.19
2022-12-25T22:54:30.097Z,100228.50
2022-12-25T22:59:34.218Z,100221.69
2022-12-25T23:04:39.101Z,100218.22
2022-12-25T23:09:42.798Z,100228.25
2022-12-25T23:14:47.099Z,100237.16
2022-12-25T23:20:09.122Z,100238.81
2022-12-25T23:25:33.493Z,100243.91
2022-12-25T23:30:36.954Z,100247.63
2022-12-25T23:35:41.829Z,100252.81
2022-12-25T23:40:45.128Z,100242.09
2022-12-25T23:45:48.549Z,100249.28
2022-12-25T23:50:53.290Z,100266.28
2022-12-25T23:55:57.830Z,100265.13
